createdAt,value
2023-03-05T00:00:26.974Z,0.45
2023-03-05T00:02:58.591Z,0.47
2023-03-05T00:05:30.192Z,0.47
2023-03-05T00:08:01.785Z,0.38
2023-03-05T00:10:33.316Z,0.47
2023-03-05T00:13:04.850Z,0.45
2023-03-05T00:15:41.212Z,0.45
2023-03-05T00:18:12.839Z,0.40
2023-03-05T00:20:46.346Z,0.44
2023-03-05T00:23:17.845Z,0.46
2023-03-05T00:25:49.586Z,0.51
2023-03-05T00:28:21.273Z,0.56
2023-03-05T00:30:52.761Z,0.49
2023-03-05T00:33:24.272Z,0.45
2023-03-05T00:35:55.716Z,0.51
2023-03-05T00:38:27.212Z,0.56
2023-03-05T00:40:58.646Z,0.49
2023-03-05T00:43:30.746Z,0.56
2023-03-05T00:46:02.460Z,0.49
2023-03-05T00:48:34.284Z,0.44
2023-03-05T00:51:05.971Z,0.38
2023-03-05T00:53:37.626Z,0.38
2023-03-05T00:56:09.201Z,0.31
2023-03-05T00:58:40.697Z,0.25
2023-03-05T01:01:12.524Z,0.27
2023-03-05T01:03:44.068Z,0.21
2023-03-05T01:06:19.304Z,0.09
2023-03-05T01:08:51.035Z,0.03
2023-03-05T01:11:22.751Z,0.08
2023-03-05T01:13:54.316Z,0.07
2023-03-05T01:16:26.014Z,0.19
2023-03-05T01:18:57.586Z,0.20
2023-03-05T01:21:29.077Z,0.24
2023-03-05T01:24:00.706Z,0.36
2023-03-05T01:26:32.550Z,0.33
2023-03-05T01:29:04.687Z,0.31
2023-03-05T01:31:36.253Z,0.33
2023-03-05T01:34:07.892Z,0.33
2023-03-05T01:36:41.913Z,0.40
2023-03-05T01:39:13.725Z,0.43
2023-03-05T01:41:45.225Z,0.41
2023-03-05T01:44:26.087Z,0.42
2023-03-05T01:46:57.818Z,0.46
2023-03-05T01:49:40.678Z,0.52
2023-03-05T01:52:18.046Z,0.56
2023-03-05T01:55:04.623Z,0.48
2023-03-05T01:57:40.630Z,0.54
2023-03-05T02:00:17.380Z,0.45
2023-03-05T02:02:51.277Z,0.49
2023-03-05T02:05:27.139Z,0.50
2023-03-05T02:08:00.981Z,0.52
2023-03-05T02:10:48.016Z,0.46
2023-03-05T02:13:24.381Z,0.51
2023-03-05T02:15:59.153Z,0.27
2023-03-05T02:18:30.724Z,0.38
2023-03-05T02:21:06.692Z,0.39
2023-03-05T02:23:38.795Z,0.31
2023-03-05T02:26:10.854Z,0.36
2023-03-05T02:28:52.028Z,0.20
2023-03-05T02:31:25.499Z,0.32
2023-03-05T02:33:57.241Z,0.41
2023-03-05T02:36:29.082Z,0.41
2023-03-05T02:39:00.825Z,0.46
2023-03-05T02:41:32.386Z,0.51
2023-03-05T02:44:04.078Z,0.43
2023-03-05T02:46:35.644Z,0.32
2023-03-05T02:49:07.128Z,0.41
2023-03-05T02:51:38.610Z,0.38
2023-03-05T02:54:10.166Z,0.43
2023-03-05T02:56:43.418Z,0.33
2023-03-05T02:59:14.948Z,0.28
2023-03-05T03:01:46.396Z,0.39
2023-03-05T03:04:17.823Z,0.41
2023-03-05T03:06:49.345Z,0.40
2023-03-05T03:09:21.386Z,0.32
2023-03-05T03:11:53.300Z,0.18
2023-03-05T03:14:24.886Z,0.26
2023-03-05T03:16:56.627Z,0.24
2023-03-05T03:19:28.138Z,0.27
2023-03-05T03:21:59.772Z,0.28
2023-03-05T03:24:32.324Z,0.33
2023-03-05T03:27:04.438Z,0.35
2023-03-05T03:29:38.194Z,0.33
2023-03-05T03:32:09.752Z,0.33
2023-03-05T03:34:41.538Z,0.33
2023-03-05T03:37:13.285Z,0.38
2023-03-05T03:39:44.769Z,0.42
2023-03-05T03:42:20.640Z,0.43
2023-03-05T03:44:52.503Z,0.45
2023-03-05T03:47:24.062Z,0.51
2023-03-05T03:49:55.620Z,0.52
2023-03-05T03:52:27.556Z,0.54
2023-03-05T03:55:01.717Z,0.50
2023-03-05T03:57:33.560Z,0.55
2023-03-05T04:00:10.973Z,0.60
2023-03-05T04:02:42.578Z,0.47
2023-03-05T04:05:14.202Z,0.55
2023-03-05T04:07:45.755Z,0.51
2023-03-05T04:10:17.794Z,0.53
2023-03-05T04:12:49.382Z,0.56
2023-03-05T04:15:21.554Z,0.55
2023-03-05T04:17:53.052Z,0.60
2023-03-05T04:20:24.773Z,0.68
2023-03-05T04:22:56.380Z,0.72
2023-03-05T04:25:27.935Z,0.69
2023-03-05T04:27:59.461Z,0.75
2023-03-05T04:30:31.397Z,0.76
2023-03-05T04:33:03.034Z,0.84
2023-03-05T04:35:34.574Z,0.86
2023-03-05T04:38:06.225Z,0.90
2023-03-05T04:40:38.130Z,0.93
2023-03-05T04:43:09.656Z,0.93
2023-03-05T04:45:42.872Z,0.92
2023-03-05T04:48:14.436Z,0.90
2023-03-05T04:50:45.948Z,0.94
2023-03-05T04:53:17.475Z,0.96
2023-03-05T04:55:55.606Z,0.89
2023-03-05T04:58:27.894Z,0.91
2023-03-05T05:01:04.431Z,0.93
2023-03-05T05:03:35.973Z,0.96
2023-03-05T05:06:07.546Z,1.00
2023-03-05T05:08:39.069Z,1.04
2023-03-05T05:11:14.045Z,0.99
2023-03-05T05:13:45.686Z,0.99
2023-03-05T05:16:17.273Z,1.05
2023-03-05T05:18:48.892Z,1.10
2023-03-05T05:21:20.439Z,1.09
2023-03-05T05:23:51.999Z,1.10
2023-03-05T05:26:23.572Z,1.16
2023-03-05T05:28:55.136Z,1.17
2023-03-05T05:31:26.702Z,1.20
2023-03-05T05:33:58.309Z,1.09
2023-03-05T05:36:30.141Z,1.15
2023-03-05T05:39:01.668Z,1.13
2023-03-05T05:41:33.074Z,1.16
2023-03-05T05:44:04.789Z,1.18
2023-03-05T05:46:36.413Z,1.16
2023-03-05T05:49:08.001Z,1.18
2023-03-05T05:51:39.494Z,1.21
2023-03-05T05:54:14.837Z,1.24
2023-03-05T05:56:46.315Z,1.26
2023-03-05T05:59:17.823Z,1.29
2023-03-05T06:01:49.393Z,1.31
2023-03-05T06:04:20.950Z,1.35
2023-03-05T06:06:52.374Z,1.39
2023-03-05T06:09:23.868Z,1.37
2023-03-05T06:11:55.358Z,1.38
2023-03-05T06:14:26.947Z,1.37
2023-03-05T06:16:58.502Z,1.40
2023-03-05T06:19:30.061Z,1.38
2023-03-05T06:22:01.845Z,1.41
2023-03-05T06:24:33.349Z,1.42
2023-03-05T06:27:05.872Z,1.34
2023-03-05T06:29:37.388Z,1.37
2023-03-05T06:32:10.180Z,1.44
2023-03-05T06:34:41.752Z,1.52
2023-03-05T06:37:13.251Z,1.51
2023-03-05T06:39:44.750Z,1.52
2023-03-05T06:42:18.519Z,1.55
2023-03-05T06:44:50.064Z,1.53
2023-03-05T06:47:21.648Z,1.56
2023-03-05T16:18:13.962Z,2.86
2023-03-05T16:20:45.690Z,2.90
2023-03-05T17:37:21.079Z,2.56
2023-03-05T17:39:53.009Z,2.63
2023-03-05T17:42:24.548Z,2.63
2023-03-05T17:45:02.060Z,2.69
2023-03-05T17:47:35.295Z,2.76
2023-03-05T17:50:08.226Z,2.83
2023-03-05T17:52:41.236Z,2.87
2023-03-05T17:55:15.785Z,2.95
2023-03-05T17:57:48.274Z,3.01
2023-03-05T18:00:24.217Z,3.04
2023-03-05T18:02:57.642Z,3.10
2023-03-05T18:05:30.162Z,3.11
2023-03-05T18:08:03.750Z,3.13
2023-03-05T18:10:35.423Z,3.17
2023-03-05T18:13:07.343Z,3.19
2023-03-05T18:15:41.757Z,3.18
2023-03-05T18:18:18.005Z,3.21
2023-03-05T18:20:49.837Z,3.21
2023-03-05T18:23:21.591Z,3.22
2023-03-05T18:25:55.501Z,3.22
2023-03-05T18:28:28.007Z,3.23
2023-03-05T18:30:59.735Z,3.23
2023-03-05T18:33:32.904Z,3.23
2023-03-05T18:36:05.332Z,3.15
2023-03-05T18:38:38.375Z,3.20
2023-03-05T18:41:19.585Z,3.22
2023-03-05T18:43:51.470Z,3.20
2023-03-05T18:46:23.270Z,3.20
2023-03-05T18:48:55.005Z,3.21
2023-03-05T18:51:28.390Z,3.21
2023-03-05T18:53:59.960Z,3.21
2023-03-05T18:57:49.180Z,3.24
2023-03-05T19:00:31.979Z,3.23
2023-03-05T19:03:05.803Z,3.23
2023-03-05T19:05:40.325Z,3.23
2023-03-05T19:08:14.682Z,3.24
2023-03-05T19:10:46.929Z,3.23
2023-03-05T19:13:34.534Z,3.25
2023-03-05T19:16:13.513Z,3.22
2023-03-05T19:19:18.035Z,3.23
2023-03-05T19:21:55.046Z,3.25
2023-03-05T19:24:30.604Z,3.26
2023-03-05T19:27:10.075Z,3.23
2023-03-05T19:29:42.923Z,3.24
2023-03-05T19:32:19.005Z,3.23
2023-03-05T19:34:54.206Z,3.23
2023-03-05T19:37:26.466Z,3.19
2023-03-05T19:39:58.037Z,3.16
2023-03-05T19:42:30.213Z,3.15
2023-03-05T19:45:13.613Z,3.13
2023-03-05T19:47:49.237Z,3.11
2023-03-05T19:50:20.795Z,3.12
2023-03-05T19:52:53.350Z,3.13
2023-03-05T19:55:25.326Z,3.13
2023-03-05T19:57:57.421Z,3.11
2023-03-05T20:00:39.386Z,3.09
2023-03-05T20:03:11.863Z,3.10
2023-03-05T20:05:46.373Z,3.09
2023-03-05T20:08:19.297Z,3.09
2023-03-05T20:10:51.158Z,3.11
2023-03-05T20:13:30.434Z,3.08
2023-03-05T20:16:02.100Z,3.07
2023-03-05T20:18:33.857Z,3.10
2023-03-05T20:21:06.325Z,3.07
2023-03-05T20:23:38.016Z,3.07
2023-03-05T20:26:10.910Z,3.07
2023-03-05T20:28:42.678Z,3.07
2023-03-05T20:31:18.853Z,3.06
2023-03-05T20:33:50.642Z,3.05
2023-03-05T20:36:23.372Z,3.08
2023-03-05T20:38:56.324Z,3.03
2023-03-05T20:41:28.546Z,2.99
2023-03-05T20:44:01.195Z,2.96
2023-03-05T20:46:39.866Z,3.02
2023-03-05T20:49:12.422Z,3.02
2023-03-05T20:51:47.440Z,3.04
2023-03-05T20:54:22.359Z,2.99
2023-03-05T20:56:56.003Z,2.99
2023-03-05T20:59:28.550Z,3.03
2023-03-05T21:02:04.137Z,3.02
2023-03-05T21:04:35.710Z,2.94
2023-03-05T21:07:07.578Z,2.86
2023-03-05T21:09:39.739Z,2.87
2023-03-05T21:12:11.401Z,2.87
2023-03-05T21:14:45.514Z,2.84
2023-03-05T21:17:18.351Z,2.74
2023-03-05T21:19:51.656Z,2.78
2023-03-05T21:22:23.159Z,2.74
2023-03-05T21:25:03.658Z,2.77
2023-03-05T21:27:35.165Z,2.82
2023-03-05T21:30:07.215Z,2.84
2023-03-05T21:32:39.089Z,2.88
2023-03-05T21:35:16.207Z,2.84
2023-03-05T21:37:52.597Z,2.84
2023-03-05T21:40:24.948Z,2.87
2023-03-05T21:42:56.625Z,2.84
2023-03-05T21:45:30.772Z,2.87
2023-03-05T21:48:02.688Z,2.89
2023-03-05T21:50:34.817Z,2.89
2023-03-05T21:53:06.718Z,2.87
2023-03-05T21:56:07.965Z,2.84
2023-03-05T21:58:39.592Z,2.81
2023-03-05T22:01:12.392Z,2.72
2023-03-05T22:03:44.291Z,2.68
2023-03-05T22:06:18.028Z,2.66
2023-03-05T22:08:49.668Z,2.68
2023-03-05T22:11:22.366Z,2.63
2023-03-05T22:13:54.132Z,2.59
2023-03-05T22:16:27.679Z,2.59
2023-03-05T22:18:59.563Z,2.58
2023-03-05T22:21:32.208Z,2.60
2023-03-05T22:24:03.896Z,2.59
2023-03-05T22:26:38.510Z,2.59
2023-03-05T22:29:11.646Z,2.67
2023-03-05T22:31:44.294Z,2.68
2023-03-05T22:34:16.081Z,2.72
2023-03-05T22:36:47.642Z,2.71
2023-03-05T22:39:19.189Z,2.74
2023-03-05T22:41:50.657Z,2.74
2023-03-05T22:44:24.933Z,2.75
2023-03-05T22:46:56.792Z,2.68
2023-03-05T22:49:28.297Z,2.67
2023-03-05T22:51:59.891Z,2.51
2023-03-05T22:54:31.367Z,2.40
2023-03-05T22:57:02.935Z,2.37
2023-03-05T22:59:34.429Z,2.22
2023-03-05T23:02:06.046Z,2.29
2023-03-05T23:04:53.512Z,2.35
2023-03-05T23:07:28.410Z,2.37
2023-03-05T23:10:08.189Z,2.45
2023-03-05T23:12:44.529Z,2.50
2023-03-05T23:15:23.265Z,2.51
2023-03-05T23:17:54.881Z,2.44
2023-03-05T23:20:32.679Z,2.45
2023-03-05T23:23:04.824Z,2.51
2023-03-05T23:25:36.676Z,2.53
2023-03-05T23:28:08.250Z,2.54
2023-03-05T23:30:39.769Z,2.52
2023-03-05T23:33:16.229Z,2.53
2023-03-05T23:35:54.360Z,2.53
2023-03-05T23:38:28.315Z,2.52
2023-03-05T23:41:03.592Z,2.54
2023-03-05T23:43:35.497Z,2.54
2023-03-05T23:46:10.764Z,2.55
2023-03-05T23:51:30.869Z,2.57
2023-03-05T23:54:02.333Z,2.55
2023-03-05T23:56:33.762Z,2.58
2023-03-05T23:59:05.250Z,2.56
